Time;durP1;ratioP1;P1;durP2;ratioP2;P2;SDS_P1;SDS_P2;PMS_P1;PMS_P2;Temp;Humidity;BMP_temperature;BMP_pressure;BME280_temperature;BME280_humidity;BME280_pressure;Samples;Min_cycle;Max_cycle;Signal;HPM_P1;HPM_P2
2022/07/25 00:00:23;;;;;;;;;;;;;;;23.09;50.03;101100.47;4916746;29;7468;-60
2022/07/25 00:02:49;;;;;;;;;;;;;;;23.08;50.31;101101.91;4918714;29;4240;-60
2022/07/25 00:05:16;;;;;;;;;;;;;;;23.08;49.99;101096.88;4920414;29;4258;-60
2022/07/25 00:07:42;;;;;;;;;;;;;;;23.09;49.88;101091.81;4915886;29;4254;-59
2022/07/25 00:10:09;;;;;;;;;;;;;;;23.08;49.86;101085.31;4918401;29;4077;-59
2022/07/25 00:12:35;;;;;;;;;;;;;;;23.06;50.05;101081.59;4918622;29;4239;-59
2022/07/25 00:15:01;;;;;;;;;;;;;;;23.08;50.18;101084.56;4919144;29;4199;-59
2022/07/25 00:17:28;;;;;;;;;;;;;;;23.07;49.66;101080.94;4903320;29;4202;-59
2022/07/25 00:19:54;;;;;;;;;;;;;;;23.06;49.68;101070.06;4917305;29;4216;-59
2022/07/25 00:22:20;;;;;;;;;;;;;;;23.07;49.67;101069.41;4917878;29;4230;-59
2022/07/25 00:24:47;;;;;;;;;;;;;;;23.04;49.67;101055.53;4919007;29;4175;-59
2022/07/25 00:27:13;;;;;;;;;;;;;;;23.05;49.78;101062.81;4917711;29;4250;-59
2022/07/25 00:29:40;;;;;;;;;;;;;;;23.05;49.53;101060.66;4918832;29;4210;-59
2022/07/25 00:32:06;;;;;;;;;;;;;;;23.05;49.67;101057.75;4920275;29;4217;-60
2022/07/25 00:34:32;;;;;;;;;;;;;;;23.05;49.66;101062.81;4920507;29;4275;-59
2022/07/25 00:36:59;;;;;;;;;;;;;;;23.06;49.73;101061.38;4919104;29;5453;-60
2022/07/25 00:39:25;;;;;;;;;;;;;;;23.05;49.55;101057.75;4915308;29;4316;-59
2022/07/25 00:41:51;;;;;;;;;;;;;;;23.03;49.59;101060.56;4917752;29;4238;-59
2022/07/25 00:44:22;;;;;;;;;;;;;;;23.04;49.58;101052.63;4918342;29;4223;-59
2022/07/25 00:46:49;;;;;;;;;;;;;;;23.04;49.39;101062.03;4914222;29;4216;-59
2022/07/25 00:49:16;;;;;;;;;;;;;;;23.06;49.33;101052.72;4917822;29;4566;-60
2022/07/25 00:51:43;;;;;;;;;;;;;;;23.06;49.15;101046.94;4914635;29;4244;-59
2022/07/25 00:54:09;;;;;;;;;;;;;;;23.06;49.10;101050.56;4907895;29;4248;-60
2022/07/25 00:56:35;;;;;;;;;;;;;;;23.06;49.01;101046.94;4920553;29;4171;-59
2022/07/25 00:59:02;;;;;;;;;;;;;;;23.05;49.11;101037.53;4909978;29;4248;-60
2022/07/25 01:01:28;;;;;;;;;;;;;;;23.04;48.99;101032.41;4913818;29;4232;-59
2022/07/25 01:03:55;;;;;;;;;;;;;;;23.04;48.81;101043.97;4917135;29;4276;-59
2022/07/25 01:06:21;;;;;;;;;;;;;;;23.04;49.04;101032.41;4913809;29;4223;-60
2022/07/25 01:08:50;;;;;;;;;;;;;;;23.05;48.58;101036.81;4916917;29;4091;-59
2022/07/25 01:11:16;;;;;;;;;;;;;;;23.05;48.79;101028.16;4916308;29;4284;-59
2022/07/25 01:13:42;;;;;;;;;;;;;;;23.04;48.66;101026.66;4910726;29;4259;-59
2022/07/25 01:16:09;;;;;;;;;;;;;;;23.04;48.46;101020.88;4915821;29;4208;-59
2022/07/25 01:18:35;;;;;;;;;;;;;;;23.04;48.66;101033.16;4918922;29;4248;-59
2022/07/25 01:21:02;;;;;;;;;;;;;;;23.02;48.41;101023.69;4909922;29;4241;-60
2022/07/25 01:23:28;;;;;;;;;;;;;;;23.06;48.57;101023.84;4913838;29;4383;-59
2022/07/25 01:25:55;;;;;;;;;;;;;;;23.06;48.48;101021.69;4906182;29;6237;-59
2022/07/25 01:28:21;;;;;;;;;;;;;;;23.06;48.15;101023.84;4912847;29;4225;-59
2022/07/25 01:30:47;;;;;;;;;;;;;;;23.07;48.13;101026.06;4905715;29;4212;-59
2022/07/25 01:33:15;;;;;;;;;;;;;;;23.09;48.27;101022.50;4914302;29;5472;-59
2022/07/25 01:35:41;;;;;;;;;;;;;;;23.06;48.32;101023.84;4916026;29;4692;-59
2022/07/25 01:38:08;;;;;;;;;;;;;;;23.09;48.39;101019.63;4919437;29;4139;-59
2022/07/25 01:40:35;;;;;;;;;;;;;;;23.07;48.24;101013.78;4916856;29;4339;-59
2022/07/25 01:43:01;;;;;;;;;;;;;;;23.03;48.28;101007.84;4912432;29;4226;-59
2022/07/25 01:45:28;;;;;;;;;;;;;;;23.03;48.25;101008.59;4918196;29;4177;-59
2022/07/25 01:47:54;;;;;;;;;;;;;;;23.01;48.32;101005.63;4918865;29;5562;-59
2022/07/25 01:50:20;;;;;;;;;;;;;;;23.04;48.35;101009.31;4916173;29;5287;-59
2022/07/25 01:52:47;;;;;;;;;;;;;;;23.03;48.11;101002.06;4913644;29;4264;-60
2022/07/25 01:55:13;;;;;;;;;;;;;;;23.00;48.10;101004.88;4917370;29;4113;-60
2022/07/25 01:57:39;;;;;;;;;;;;;;;23.02;47.88;101001.34;4918581;29;4301;-59
2022/07/25 02:00:14;;;;;;;;;;;;;;;23.03;48.13;101002.06;4917059;29;4063;-59
2022/07/25 02:02:41;;;;;;;;;;;;;;;23.00;48.02;101004.88;4915765;29;5301;-59
2022/07/25 02:05:08;;;;;;;;;;;;;;;23.00;47.86;100998.38;4917984;29;5389;-59
2022/07/25 02:07:34;;;;;;;;;;;;;;;23.01;47.82;100982.50;4913377;29;4305;-59
2022/07/25 02:10:00;;;;;;;;;;;;;;;22.98;47.95;100996.09;4917155;29;5271;-60
2022/07/25 02:12:27;;;;;;;;;;;;;;;22.97;47.96;100991.72;4919099;29;4156;-59
2022/07/25 02:14:53;;;;;;;;;;;;;;;22.99;47.91;100986.06;4919782;29;4251;-60
2022/07/25 02:17:23;;;;;;;;;;;;;;;22.95;47.67;100976.47;4916944;29;4186;-59
2022/07/25 02:19:49;;;;;;;;;;;;;;;22.96;47.49;100970.03;4920630;29;4327;-59
2022/07/25 02:22:16;;;;;;;;;;;;;;;22.97;47.92;100976.53;4921780;29;4240;-59
2022/07/25 02:24:42;;;;;;;;;;;;;;;22.96;47.50;100975.09;4923385;29;4128;-59
2022/07/25 02:27:08;;;;;;;;;;;;;;;22.96;47.59;100967.16;4921483;29;4200;-59
2022/07/25 02:29:35;;;;;;;;;;;;;;;22.96;47.52;100972.19;4917755;29;5318;-60
2022/07/25 02:32:01;;;;;;;;;;;;;;;22.95;47.48;100962.78;4919113;29;5563;-60
2022/07/25 02:34:27;;;;;;;;;;;;;;;22.95;47.47;100967.81;4923361;29;4240;-60
2022/07/25 02:36:54;;;;;;;;;;;;;;;22.95;47.56;100959.16;4922800;29;4195;-60
2022/07/25 02:39:20;;;;;;;;;;;;;;;22.94;47.76;100955.53;4921862;29;5299;-60
2022/07/25 02:41:46;;;;;;;;;;;;;;;22.93;47.59;100956.94;4921785;29;5313;-60
2022/07/25 02:44:13;;;;;;;;;;;;;;;22.93;47.66;100959.81;4919688;29;4259;-60
2022/07/25 02:46:39;;;;;;;;;;;;;;;22.93;47.34;100954.06;4917020;29;4248;-60
2022/07/25 02:49:06;;;;;;;;;;;;;;;22.90;47.34;100949.59;4918579;29;5438;-60
2022/07/25 02:51:32;;;;;;;;;;;;;;;22.91;47.29;100942.41;4917707;29;4254;-59
2022/07/25 02:53:59;;;;;;;;;;;;;;;22.91;47.54;100948.19;4922337;29;5385;-59
2022/07/25 02:56:26;;;;;;;;;;;;;;;22.90;47.65;100946.69;4918328;29;5472;-59
2022/07/25 02:58:56;;;;;;;;;;;;;;;22.90;47.69;100940.94;4922900;29;4152;-59
2022/07/25 03:01:22;;;;;;;;;;;;;;;22.89;47.94;100936.56;4916973;29;4405;-59
2022/07/25 03:03:49;;;;;;;;;;;;;;;22.88;47.65;100929.31;4918773;29;4275;-60
2022/07/25 03:06:15;;;;;;;;;;;;;;;22.87;47.84;100932.88;4921484;29;4176;-59
2022/07/25 03:08:41;;;;;;;;;;;;;;;22.86;47.85;100926.34;4920913;29;5370;-59
2022/07/25 03:11:08;;;;;;;;;;;;;;;22.87;48.04;100930.72;4916867;29;4346;-60
2022/07/25 03:13:34;;;;;;;;;;;;;;;22.86;48.18;100926.34;4914348;29;4049;-59
2022/07/25 03:16:01;;;;;;;;;;;;;;;22.86;47.99;100926.34;4915406;29;5058;-61
2022/07/25 03:18:27;;;;;;;;;;;;;;;22.86;48.07;100923.47;4917412;29;4265;-60
2022/07/25 03:20:53;;;;;;;;;;;;;;;22.86;48.05;100926.34;4918038;29;4087;-60
2022/07/25 03:23:20;;;;;;;;;;;;;;;22.86;48.00;100925.59;4917547;29;4246;-60
2022/07/25 03:25:46;;;;;;;;;;;;;;;22.86;48.05;100919.81;4915809;29;4390;-59
2022/07/25 03:28:12;;;;;;;;;;;;;;;22.85;47.87;100924.88;4920772;29;5405;-59
2022/07/25 03:30:39;;;;;;;;;;;;;;;22.84;48.03;100916.84;4918397;29;4264;-59
2022/07/25 03:33:05;;;;;;;;;;;;;;;22.84;47.72;100914.72;4918071;29;5316;-59
2022/07/25 03:35:32;;;;;;;;;;;;;;;22.82;47.61;100917.53;4920149;29;4392;-59
2022/07/25 03:38:00;;;;;;;;;;;;;;;22.83;48.06;100913.25;4918504;29;5450;-59
2022/07/25 03:40:26;;;;;;;;;;;;;;;22.82;47.64;100911.75;4917715;29;4218;-59
2022/07/25 03:42:53;;;;;;;;;;;;;;;22.81;47.76;100907.38;4922093;29;4449;-59
2022/07/25 03:45:19;;;;;;;;;;;;;;;22.81;47.88;100898.72;4919006;29;4059;-59
2022/07/25 03:47:46;;;;;;;;;;;;;;;22.82;47.84;100899.50;4919497;29;4560;-59
2022/07/25 03:50:12;;;;;;;;;;;;;;;22.82;47.54;100906.00;4915793;29;4941;-59
2022/07/25 03:52:38;;;;;;;;;;;;;;;22.81;47.97;100892.94;4905820;29;5270;-59
2022/07/25 03:55:05;;;;;;;;;;;;;;;22.81;47.81;100895.84;4913284;29;4330;-59
2022/07/25 03:57:32;;;;;;;;;;;;;;;22.81;47.88;100892.94;4915058;29;4203;-60
2022/07/25 03:59:58;;;;;;;;;;;;;;;22.78;47.99;100897.91;4918662;29;4284;-60
2022/07/25 04:02:24;;;;;;;;;;;;;;;22.80;47.89;100894.38;4919128;29;4268;-59
2022/07/25 04:04:51;;;;;;;;;;;;;;;22.80;47.94;100894.38;4905821;29;4320;-60
2022/07/25 04:07:18;;;;;;;;;;;;;;;22.79;47.75;100887.09;4916810;29;4222;-60
2022/07/25 04:09:44;;;;;;;;;;;;;;;22.80;47.80;100897.25;4917950;29;4086;-59
2022/07/25 04:12:10;;;;;;;;;;;;;;;22.78;47.99;100892.13;4910957;29;5290;-59
2022/07/25 04:14:37;;;;;;;;;;;;;;;22.82;47.67;100896.59;4915987;29;4269;-60
2022/07/25 04:17:05;;;;;;;;;;;;;;;22.79;48.04;100890.75;4915710;29;4241;-60
2022/07/25 04:19:31;;;;;;;;;;;;;;;22.81;47.72;100884.28;4919419;29;5464;-60
2022/07/25 04:21:58;;;;;;;;;;;;;;;22.81;47.68;100890.06;4913212;29;6549;-60
2022/07/25 04:24:24;;;;;;;;;;;;;;;22.81;47.66;100884.28;4910667;29;4274;-59
2022/07/25 04:26:50;;;;;;;;;;;;;;;22.22;49.57;100873.41;4906373;29;4299;-64
2022/07/25 04:29:17;;;;;;;;;;;;;;;22.30;49.71;100876.63;4916753;29;5409;-62
2022/07/25 04:31:43;;;;;;;;;;;;;;;22.38;48.96;100871.16;4917642;29;4325;-71
2022/07/25 04:34:09;;;;;;;;;;;;;;;22.38;48.97;100874.06;4915881;29;4182;-57
2022/07/25 04:36:36;;;;;;;;;;;;;;;22.33;48.59;100866.63;4913227;29;5283;-59
2022/07/25 04:39:13;;;;;;;;;;;;;;;22.37;48.19;100861.75;4913513;29;5455;-61
2022/07/25 04:41:40;;;;;;;;;;;;;;;22.41;48.82;100860.44;4918269;29;4100;-61
2022/07/25 04:44:07;;;;;;;;;;;;;;;22.38;48.93;100851.72;4918844;29;4230;-61
2022/07/25 04:46:34;;;;;;;;;;;;;;;22.22;49.02;100844.56;4917977;29;5324;-61
2022/07/25 04:49:01;;;;;;;;;;;;;;;22.36;48.71;100833.59;4919128;29;4173;-61
2022/07/25 04:51:27;;;;;;;;;;;;;;;22.36;48.54;100833.59;4918547;29;4257;-61
2022/07/25 04:53:53;;;;;;;;;;;;;;;22.31;48.89;100826.16;4917080;29;4206;-63
2022/07/25 04:56:20;;;;;;;;;;;;;;;22.26;48.59;100818.75;4915209;29;4199;-61
2022/07/25 04:58:46;;;;;;;;;;;;;;;22.30;48.29;100816.03;4916314;29;4118;-60
2022/07/25 05:01:13;;;;;;;;;;;;;;;22.26;48.88;100815.88;4913414;29;4339;-60
2022/07/25 05:03:39;;;;;;;;;;;;;;;22.19;48.76;100814.88;4915910;29;4255;-60
2022/07/25 05:06:15;;;;;;;;;;;;;;;22.24;49.02;100815.81;4917972;29;4281;-60
2022/07/25 05:08:42;;;;;;;;;;;;;;;22.32;48.53;100813.22;4917836;29;4227;-60
2022/07/25 05:11:08;;;;;;;;;;;;;;;22.35;47.93;100811.91;4915747;29;5334;-60
2022/07/25 05:13:35;;;;;;;;;;;;;;;22.31;48.30;100809.63;4920437;29;4236;-60
2022/07/25 05:16:01;;;;;;;;;;;;;;;22.37;48.31;100809.09;4919793;29;4135;-60
2022/07/25 05:18:28;;;;;;;;;;;;;;;22.39;48.34;100812.06;4919628;29;4195;-61
2022/07/25 05:20:54;;;;;;;;;;;;;;;22.38;48.29;100799.03;4918374;29;5275;-60
2022/07/25 05:23:21;;;;;;;;;;;;;;;22.41;48.44;100803.47;4917561;29;4254;-60
2022/07/25 05:25:48;;;;;;;;;;;;;;;22.36;48.30;100801.84;4917763;29;4181;-60
2022/07/25 05:28:16;;;;;;;;;;;;;;;22.39;48.34;100791.84;4917951;29;4255;-60
2022/07/25 05:30:42;;;;;;;;;;;;;;;22.41;48.62;100791.19;4918606;29;4112;-60
2022/07/25 05:33:09;;;;;;;;;;;;;;;22.42;48.58;100799.16;4918058;29;4304;-60
2022/07/25 05:35:35;;;;;;;;;;;;;;;22.44;48.70;100799.25;4918822;29;4260;-60
2022/07/25 05:38:01;;;;;;;;;;;;;;;22.46;48.50;100793.56;4918807;29;5334;-60
2022/07/25 05:40:28;;;;;;;;;;;;;;;22.51;48.26;100791.56;4921345;29;4264;-61
2022/07/25 05:42:54;;;;;;;;;;;;;;;22.48;48.53;100779.22;4919061;29;4375;-60
2022/07/25 05:45:28;;;;;;;;;;;;;;;22.48;48.23;100787.88;4919942;29;5337;-60
2022/07/25 05:47:54;;;;;;;;;;;;;;;22.46;48.49;100787.78;4916736;29;4335;-61
2022/07/25 05:50:20;;;;;;;;;;;;;;;22.38;48.66;100793.28;4915589;29;4251;-60
2022/07/25 05:52:47;;;;;;;;;;;;;;;22.48;48.50;100779.22;4917758;29;4210;-61
2022/07/25 05:55:14;;;;;;;;;;;;;;;22.45;48.50;100777.66;4915078;29;4249;-61
2022/07/25 05:57:41;;;;;;;;;;;;;;;22.49;48.31;100774.16;4916179;29;4266;-61
2022/07/25 06:00:08;;;;;;;;;;;;;;;22.52;48.87;100776.47;4916090;29;5334;-61
2022/07/25 06:02:34;;;;;;;;;;;;;;;22.52;49.18;100769.97;4919101;29;4241;-61
2022/07/25 06:05:01;;;;;;;;;;;;;;;22.53;49.18;100760.63;4918591;29;5301;-60
2022/07/25 06:07:27;;;;;;;;;;;;;;;22.53;49.14;100762.78;4916094;29;4252;-61
2022/07/25 06:09:54;;;;;;;;;;;;;;;22.56;48.86;100762.19;4919307;29;4197;-60
2022/07/25 06:12:20;;;;;;;;;;;;;;;22.58;49.64;100759.34;4918292;29;4150;-61
2022/07/25 06:14:49;;;;;;;;;;;;;;;22.61;49.30;100756.56;4915956;29;5518;-61
2022/07/25 06:17:15;;;;;;;;;;;;;;;22.63;49.09;100759.50;4915665;29;4269;-60
2022/07/25 06:19:42;;;;;;;;;;;;;;;22.62;49.65;100752.28;4916774;29;4312;-61
2022/07/25 06:22:10;;;;;;;;;;;;;;;22.68;49.37;100749.59;4916379;29;4216;-60
2022/07/25 06:24:36;;;;;;;;;;;;;;;22.65;49.33;100740.13;4916321;29;4244;-60
2022/07/25 06:27:03;;;;;;;;;;;;;;;22.69;49.38;100742.41;4916561;29;5279;-60
2022/07/25 06:29:29;;;;;;;;;;;;;;;22.71;49.74;100739.59;4918782;29;4274;-61
2022/07/25 06:31:56;;;;;;;;;;;;;;;22.74;49.58;100729.59;4917491;29;5523;-60
2022/07/25 06:34:22;;;;;;;;;;;;;;;22.76;49.77;100732.56;4914512;29;4399;-60
2022/07/25 06:36:54;;;;;;;;;;;;;;;22.79;49.70;100728.31;4918708;29;4090;-60
2022/07/25 06:39:20;;;;;;;;;;;;;;;22.81;49.68;100731.28;4918251;29;4201;-60
2022/07/25 06:41:46;;;;;;;;;;;;;;;22.82;49.83;100718.34;4918561;28;4244;-61
2022/07/25 06:44:16;;;;;;;;;;;;;;;22.84;50.32;100720.53;4915653;29;5407;-64
2022/07/25 06:46:42;;;;;;;;;;;;;;;22.85;49.59;100728.53;4917885;29;5306;-61
2022/07/25 06:49:08;;;;;;;;;;;;;;;22.88;49.57;100721.41;4918404;29;4238;-62
2022/07/25 06:51:35;;;;;;;;;;;;;;;22.86;49.83;100721.38;4917609;29;4109;-62
2022/07/25 06:54:01;;;;;;;;;;;;;;;22.86;50.00;100715.59;4914571;29;5280;-62
2022/07/25 06:56:30;;;;;;;;;;;;;;;22.91;49.92;100702.75;4918188;29;5398;-62
2022/07/25 06:58:56;;;;;;;;;;;;;;;22.89;50.11;100705.59;4919185;29;4259;-62
2022/07/25 07:01:23;;;;;;;;;;;;;;;22.90;50.19;100701.28;4917201;29;4275;-61
2022/07/25 07:03:49;;;;;;;;;;;;;;;22.90;50.05;100703.44;4916165;29;5561;-61
2022/07/25 07:06:16;;;;;;;;;;;;;;;22.90;50.30;100698.38;4922049;29;4210;-61
2022/07/25 07:08:42;;;;;;;;;;;;;;;22.88;50.46;100686.75;4920869;29;4070;-61
2022/07/25 07:11:09;;;;;;;;;;;;;;;22.88;50.16;100692.53;4921562;29;5271;-61
2022/07/25 07:13:35;;;;;;;;;;;;;;;22.94;50.05;100689.13;4922087;29;4309;-61
2022/07/25 07:16:02;;;;;;;;;;;;;;;22.91;50.18;100684.72;4921347;29;4248;-61
2022/07/25 07:18:28;;;;;;;;;;;;;;;22.88;50.67;100675.22;4921313;29;4238;-62
2022/07/25 07:20:55;;;;;;;;;;;;;;;22.89;50.38;100676.72;4922681;29;4323;-62
2022/07/25 07:23:21;;;;;;;;;;;;;;;22.91;50.28;100673.91;4917318;29;4170;-62
2022/07/25 07:25:49;;;;;;;;;;;;;;;22.90;50.70;100672.41;4923737;29;4160;-62
2022/07/25 07:28:16;;;;;;;;;;;;;;;22.90;50.78;100672.41;4920725;29;4220;-62
2022/07/25 07:30:42;;;;;;;;;;;;;;;22.92;50.78;100675.34;4916752;29;4310;-62
2022/07/25 07:33:28;;;;;;;;;;;;;;;22.99;50.90;100665.50;4920307;29;5439;-61
2022/07/25 07:35:55;;;;;;;;;;;;;;;22.96;51.09;100661.06;4921484;29;4213;-61
2022/07/25 07:38:24;;;;;;;;;;;;;;;22.97;50.88;100658.91;4918554;29;4269;-68
2022/07/25 07:40:51;;;;;;;;;;;;;;;22.98;51.21;100655.34;4920593;29;4262;-67
2022/07/25 07:43:17;;;;;;;;;;;;;;;22.98;50.82;100661.13;4918943;29;4080;-58
2022/07/25 07:45:44;;;;;;;;;;;;;;;22.98;51.10;100654.63;4920988;29;5408;-69
2022/07/25 07:48:10;;;;;;;;;;;;;;;23.00;51.11;100663.38;4920499;29;5218;-69
2022/07/25 07:50:37;;;;;;;;;;;;;;;22.96;51.04;100658.16;4919478;29;4410;-67
2022/07/25 07:53:03;;;;;;;;;;;;;;;23.01;51.18;100647.53;4918317;29;5305;-68
2022/07/25 07:55:46;;;;;;;;;;;;;;;23.03;51.11;100649.75;4922075;29;4232;-70
2022/07/25 07:58:14;;;;;;;;;;;;;;;23.03;51.37;100652.63;4920938;29;4208;-69
2022/07/25 08:00:41;;;;;;;;;;;;;;;23.04;51.10;100651.19;4909320;29;4276;-69
2022/07/25 08:03:07;;;;;;;;;;;;;;;23.09;51.04;100644.13;4910653;29;4369;-60
2022/07/25 08:05:35;;;;;;;;;;;;;;;23.09;51.04;100636.22;4914229;29;4270;-59
2022/07/25 08:08:03;;;;;;;;;;;;;;;23.10;51.33;100636.97;4911807;29;4365;-61
2022/07/25 08:10:30;;;;;;;;;;;;;;;23.13;51.16;100636.34;4916966;29;4273;-59
2022/07/25 08:12:56;;;;;;;;;;;;;;;23.13;51.29;100639.22;4913664;29;4164;-59
2022/07/25 08:15:23;;;;;;;;;;;;;;;23.12;51.51;100631.25;4917614;29;4181;-59
2022/07/25 08:17:49;;;;;;;;;;;;;;;23.10;51.50;100636.97;4899815;29;4126;-59
2022/07/25 08:20:16;;;;;;;;;;;;;;;23.11;51.48;100632.66;4916594;29;4120;-59
2022/07/25 08:23:02;;;;;;;;;;;;;;;23.10;51.50;100631.19;4916418;29;4132;-59
2022/07/25 08:25:29;;;;;;;;;;;;;;;23.10;51.61;100625.41;4911159;29;4540;-59
2022/07/25 08:27:57;;;;;;;;;;;;;;;23.11;51.61;100632.66;4907450;29;4243;-59
2022/07/25 08:30:25;;;;;;;;;;;;;;;23.10;51.63;100625.41;4914636;29;4360;-59
2022/07/25 08:32:55;;;;;;;;;;;;;;;23.09;51.58;100621.78;4914682;29;4398;-59
2022/07/25 08:35:23;;;;;;;;;;;;;;;23.10;51.46;100616.75;4908904;29;4277;-59
2022/07/25 08:37:49;;;;;;;;;;;;;;;23.10;51.55;100617.47;4921200;29;5459;-59
2022/07/25 08:40:16;;;;;;;;;;;;;;;23.10;51.64;100608.09;4911862;29;4277;-59
2022/07/25 08:42:42;;;;;;;;;;;;;;;23.09;51.37;100606.59;4917226;29;4356;-59
2022/07/25 08:45:09;;;;;;;;;;;;;;;23.10;51.31;100608.81;4916230;29;4317;-59
2022/07/25 08:47:35;;;;;;;;;;;;;;;23.11;51.22;100609.56;4916726;29;4190;-59
2022/07/25 08:50:05;;;;;;;;;;;;;;;23.10;51.13;100605.94;4919997;29;4229;-59
2022/07/25 08:52:34;;;;;;;;;;;;;;;23.10;51.35;100603.03;4919356;29;4317;-59
2022/07/25 08:55:01;;;;;;;;;;;;;;;23.12;51.18;100605.25;4919196;29;4201;-59
2022/07/25 08:57:28;;;;;;;;;;;;;;;23.13;51.45;100603.84;4918040;29;4500;-59
2022/07/25 08:59:57;;;;;;;;;;;;;;;23.12;51.19;100602.38;4919035;29;4280;-59
2022/07/25 09:02:25;;;;;;;;;;;;;;;23.11;51.21;100598.00;4914558;29;4053;-59
2022/07/25 09:04:52;;;;;;;;;;;;;;;23.12;51.13;100593.72;4911781;29;4137;-59
2022/07/25 09:07:48;;;;;;;;;;;;;;;23.11;51.18;100590.09;4914180;29;4182;-59
2022/07/25 09:10:25;;;;;;;;;;;;;;;23.12;51.39;100582.16;4901273;29;4455;-59
2022/07/25 09:12:55;;;;;;;;;;;;;;;23.12;51.33;100576.38;4916066;29;4101;-59
2022/07/25 09:15:22;;;;;;;;;;;;;;;23.12;51.34;100576.38;4916537;29;4188;-59
2022/07/25 09:17:50;;;;;;;;;;;;;;;23.12;51.39;100567.72;4916323;29;4123;-59
2022/07/25 09:20:16;;;;;;;;;;;;;;;23.12;51.15;100565.56;4914535;29;4177;-62
2022/07/25 09:22:43;;;;;;;;;;;;;;;23.59;51.03;100563.28;4907595;29;4283;-65
2022/07/25 09:25:24;;;;;;;;;;;;;;;23.74;50.28;100562.31;4901824;29;5283;-65
2022/07/25 09:27:50;;;;;;;;;;;;;;;23.52;50.64;100552.97;4902036;29;4098;-67
2022/07/25 09:30:17;;;;;;;;;;;;;;;23.63;50.83;100551.84;4897924;29;4203;-66
2022/07/25 09:32:43;;;;;;;;;;;;;;;23.77;50.50;100554.44;4908005;29;4374;-66
2022/07/25 09:35:10;;;;;;;;;;;;;;;23.80;50.42;100547.28;4909486;29;4431;-68
2022/07/25 09:37:36;;;;;;;;;;;;;;;23.77;50.54;100543.59;4913012;29;4283;-66
2022/07/25 09:40:10;;;;;;;;;;;;;;;23.82;50.53;100539.41;4914460;29;4277;-65
2022/07/25 09:42:37;;;;;;;;;;;;;;;24.14;49.71;100533.00;4915507;29;5420;-64
2022/07/25 09:45:06;;;;;;;;;;;;;;;24.25;49.31;100528.22;4914306;29;4291;-64
2022/07/25 09:47:34;;;;;;;;;;;;;;;24.23;49.15;100526.00;4916875;29;4270;-67
2022/07/25 09:50:00;;;;;;;;;;;;;;;24.12;49.49;100524.28;4900897;29;4245;-67
2022/07/25 09:52:26;;;;;;;;;;;;;;;24.11;49.87;100516.28;4915307;29;4209;-65
2022/07/25 09:54:55;;;;;;;;;;;;;;;24.00;49.91;100515.28;4909851;29;4233;-64
2022/07/25 09:57:24;;;;;;;;;;;;;;;23.86;50.40;100512.75;4916970;29;4161;-64
2022/07/25 09:59:52;;;;;;;;;;;;;;;23.82;50.67;100504.72;4910120;29;4121;-63
2022/07/25 10:02:25;;;;;;;;;;;;;;;23.82;50.66;100504.72;4914930;29;4317;-64
2022/07/25 10:04:58;;;;;;;;;;;;;;;23.87;50.72;100499.03;4913878;29;4283;-67
2022/07/25 10:07:25;;;;;;;;;;;;;;;23.81;51.10;100503.22;4914779;29;4376;-67
2022/07/25 10:09:56;;;;;;;;;;;;;;;23.88;51.07;100494.72;4917799;29;4206;-69
2022/07/25 10:12:23;;;;;;;;;;;;;;;23.95;50.69;100490.56;4914856;29;4365;-61
2022/07/25 10:15:03;;;;;;;;;;;;;;;23.89;50.50;100484.63;4914997;29;4290;-62
2022/07/25 10:17:29;;;;;;;;;;;;;;;23.94;50.71;100483.31;4914873;29;4245;-66
2022/07/25 10:19:55;;;;;;;;;;;;;;;23.91;50.82;100481.78;4913302;29;4398;-69
2022/07/25 10:22:34;;;;;;;;;;;;;;;23.99;50.58;100470.44;4914298;29;4229;-69
2022/07/25 10:25:20;;;;;;;;;;;;;;;24.06;50.49;100474.94;4909526;29;4199;-66
2022/07/25 10:27:47;;;;;;;;;;;;;;;24.07;50.66;100461.94;4914660;29;4189;-65
2022/07/25 10:30:22;;;;;;;;;;;;;;;24.07;50.89;100467.72;4909894;29;4240;-66
2022/07/25 10:32:55;;;;;;;;;;;;;;;23.99;51.10;100459.59;4917344;29;5522;-66
2022/07/25 10:35:21;;;;;;;;;;;;;;;24.04;50.83;100454.66;4917756;29;4284;-68
2022/07/25 10:37:49;;;;;;;;;;;;;;;24.09;50.69;100443.91;4916401;29;4108;-68
2022/07/25 10:40:25;;;;;;;;;;;;;;;24.13;50.56;100444.03;4917533;29;5196;-70
2022/07/25 10:43:01;;;;;;;;;;;;;;;24.09;50.62;100441.75;4905642;29;4350;-63
2022/07/25 10:45:32;;;;;;;;;;;;;;;24.01;51.06;100450.97;4909758;29;4417;-62
2022/07/25 10:48:10;;;;;;;;;;;;;;;23.95;51.30;100435.63;4906943;29;4403;-64
2022/07/25 10:50:55;;;;;;;;;;;;;;;23.92;51.27;100437.00;4903845;29;4585;-65
2022/07/25 10:53:37;;;;;;;;;;;;;;;23.95;50.94;100424.06;4909024;29;4598;-63
2022/07/25 10:56:04;;;;;;;;;;;;;;;24.03;51.08;100418.47;4915937;29;4561;-62
2022/07/25 10:58:42;;;;;;;;;;;;;;;24.11;50.89;100406.38;4909855;29;5836;-65
2022/07/25 11:01:08;;;;;;;;;;;;;;;24.15;50.64;100412.97;4903116;29;4545;-64
2022/07/25 11:03:34;;;;;;;;;;;;;;;24.15;50.74;100418.75;4918855;29;4267;-63
2022/07/25 11:06:01;;;;;;;;;;;;;;;24.19;50.51;100407.28;4920711;29;5683;-62
2022/07/25 11:08:31;;;;;;;;;;;;;;;24.22;50.31;100402.28;4907577;29;4884;-61
2022/07/25 11:10:57;;;;;;;;;;;;;;;24.12;50.46;100402.78;4914044;29;5311;-64
2022/07/25 11:13:24;;;;;;;;;;;;;;;24.08;50.46;100399.06;4918595;29;4315;-62
2022/07/25 11:15:50;;;;;;;;;;;;;;;24.16;50.77;100393.47;4919732;29;4219;-67
2022/07/25 11:18:17;;;;;;;;;;;;;;;24.53;50.21;100397.19;4915580;29;4318;-66
2022/07/25 11:20:43;;;;;;;;;;;;;;;24.71;49.76;100388.19;4922249;29;4250;-71
2022/07/25 11:23:10;;;;;;;;;;;;;;;24.88;49.60;100384.19;4920271;29;4202;-68
2022/07/25 11:25:36;;;;;;;;;;;;;;;24.91;49.10;100385.69;4898507;29;4251;-68
2022/07/25 11:28:03;;;;;;;;;;;;;;;24.92;49.11;100375.56;4888038;29;4262;-70
2022/07/25 11:30:29;;;;;;;;;;;;;;;25.02;49.05;100375.78;4918885;29;4282;-70
2022/07/25 11:32:56;;;;;;;;;;;;;;;24.96;49.20;100372.75;4917201;29;4104;-71
2022/07/25 11:35:26;;;;;;;;;;;;;;;24.99;48.84;100371.41;4916802;29;4414;-67
2022/07/25 11:37:53;;;;;;;;;;;;;;;24.97;48.89;100376.38;4906318;29;5312;-66
2022/07/25 11:40:19;;;;;;;;;;;;;;;25.12;48.88;100366.56;4915952;29;5510;-66
2022/07/25 11:42:49;;;;;;;;;;;;;;;25.08;48.42;100354.88;4910684;29;4314;-63
2022/07/25 11:45:26;;;;;;;;;;;;;;;25.11;48.78;100349.88;4916952;29;4256;-73
2022/07/25 11:48:03;;;;;;;;;;;;;;;25.08;48.84;100355.63;4920492;29;4259;-72
2022/07/25 11:50:30;;;;;;;;;;;;;;;25.19;48.91;100353.66;4920334;29;4167;-71
2022/07/25 11:52:57;;;;;;;;;;;;;;;25.15;48.74;100344.13;4906563;29;5423;-78
2022/07/25 11:55:27;;;;;;;;;;;;;;;25.14;48.97;100339.78;4916439;29;5689;-74
2022/07/25 11:57:56;;;;;;;;;;;;;;;25.06;48.69;100338.22;4918969;29;5340;-69
2022/07/25 12:00:22;;;;;;;;;;;;;;;25.02;48.85;100335.25;4916060;29;4213;-68
2022/07/25 12:02:49;;;;;;;;;;;;;;;25.07;48.68;100339.66;4918028;29;4379;-68
2022/07/25 12:05:16;;;;;;;;;;;;;;;25.03;48.55;100330.16;4918985;29;4329;-68
2022/07/25 12:07:43;;;;;;;;;;;;;;;25.06;48.58;100306.34;4920266;29;4371;-68
2022/07/25 12:10:14;;;;;;;;;;;;;;;24.92;48.89;100314.03;4917475;29;4281;-73
2022/07/25 12:12:41;;;;;;;;;;;;;;;24.77;49.78;100310.13;4906562;29;4897;-72
2022/07/25 12:15:09;;;;;;;;;;;;;;;24.67;49.54;100308.50;4918788;29;4253;-78
2022/07/25 12:17:35;;;;;;;;;;;;;;;24.69;49.84;100304.91;4920528;29;4430;-70
2022/07/25 12:20:02;;;;;;;;;;;;;;;24.67;49.87;100302.00;4912114;29;4075;-70
2022/07/25 12:22:34;;;;;;;;;;;;;;;24.63;49.77;100296.13;4915302;29;4174;-69
2022/07/25 12:25:00;;;;;;;;;;;;;;;24.57;49.97;100293.81;4914097;29;4258;-70
2022/07/25 12:27:27;;;;;;;;;;;;;;;24.55;50.04;100298.84;4912430;29;4096;-72
2022/07/25 12:29:53;;;;;;;;;;;;;;;24.55;50.21;100299.56;4913020;29;4279;-69
2022/07/25 12:32:19;;;;;;;;;;;;;;;24.53;50.29;100287.94;4918004;29;5617;-63
2022/07/25 12:34:46;;;;;;;;;;;;;;;24.42;50.70;100294.94;4915341;29;4124;-62
2022/07/25 12:37:12;;;;;;;;;;;;;;;24.70;50.19;100282.50;4917048;29;4762;-61
2022/07/25 12:39:39;;;;;;;;;;;;;;;24.81;50.10;100281.28;4915083;29;4217;-62
2022/07/25 12:42:05;;;;;;;;;;;;;;;24.91;49.65;100281.44;4906787;29;4274;-61
2022/07/25 12:44:31;;;;;;;;;;;;;;;24.94;49.41;100288.72;4906577;29;4952;-64
2022/07/25 12:46:58;;;;;;;;;;;;;;;24.95;49.42;100278.63;4918839;29;4264;-65
2022/07/25 12:49:24;;;;;;;;;;;;;;;25.07;49.16;100261.44;4917788;29;4242;-68